Time;durP1;ratioP1;P1;durP2;ratioP2;P2;SDS_P1;SDS_P2;PMS_P1;PMS_P2;Temp;Humidity;BMP_temperature;BMP_pressure;BME280_temperature;BME280_humidity;BME280_pressure;Samples;Min_cycle;Max_cycle;Signal;HPM_P1;HPM_P2
2022/06/03 00:00:45;;;;;;;6.70;6.40;;;;;;;17.82;100.00;101053.81;5030284;28;20412;-62
2022/06/03 00:03:37;;;;;;;6.50;6.20;;;;;;;17.79;100.00;101058.78;5018024;28;20037;-62
2022/06/03 00:06:40;;;;;;;6.65;6.35;;;;;;;17.77;100.00;101050.91;5035329;28;20435;-61
2022/06/03 00:09:29;;;;;;;6.65;6.35;;;;;;;17.71;100.00;101054.47;5017104;28;20045;-60
2022/06/03 00:12:19;;;;;;;6.57;6.28;;;;;;;17.63;100.00;101049.28;5031138;28;20036;-61
2022/06/03 00:14:56;;;;;;;6.75;6.45;;;;;;;17.59;100.00;101053.41;5024006;28;20061;-61
2022/06/03 00:17:25;;;;;;;6.55;6.25;;;;;;;17.57;100.00;101055.47;5032440;28;20057;-62
2022/06/03 00:20:05;;;;;;;6.50;6.20;;;;;;;17.56;100.00;101064.56;5035110;28;20036;-61
2022/06/03 00:23:02;;;;;;;6.45;6.15;;;;;;;17.59;100.00;101064.13;5035570;28;20028;-61
2022/06/03 00:25:51;;;;;;;6.22;6.00;;;;;;;17.57;100.00;101079.63;5029323;28;20024;-61
2022/06/03 00:29:10;;;;;;;6.47;6.18;;;;;;;17.57;100.00;101082.28;5034359;28;20489;-61
2022/06/03 00:31:53;;;;;;;6.38;6.07;;;;;;;17.57;100.00;101076.94;4993176;28;20097;-62
2022/06/03 00:34:25;;;;;;;6.07;5.88;;;;;;;17.59;100.00;101086.41;5029604;28;20046;-62
2022/06/03 00:37:02;;;;;;;6.20;6.00;;;;;;;17.57;100.00;101093.84;5040624;28;20029;-62
2022/06/03 00:39:38;;;;;;;6.50;6.20;;;;;;;17.58;100.00;101097.34;5035644;28;20492;-62
2022/06/03 00:42:25;;;;;;;6.40;6.10;;;;;;;17.55;100.00;101098.59;5034578;28;20033;-61
2022/06/03 00:45:39;;;;;;;6.50;6.20;;;;;;;17.46;100.00;101102.50;5033880;28;20037;-61
2022/06/03 00:48:30;;;;;;;6.30;6.00;;;;;;;17.45;100.00;101097.34;5003380;28;20045;-63
2022/06/03 00:51:21;;;;;;;6.50;6.20;;;;;;;17.44;100.00;101088.47;5021279;28;20038;-61
2022/06/03 00:53:58;;;;;;;6.30;6.00;;;;;;;17.44;100.00;101101.06;5034265;28;20030;-62
2022/06/03 00:56:29;;;;;;;6.40;6.10;;;;;;;17.45;100.00;101110.75;5034922;28;20052;-61
2022/06/03 00:59:04;;;;;;;6.70;6.40;;;;;;;17.39;100.00;101110.53;5033625;28;20477;-62
2022/06/03 01:01:37;;;;;;;6.50;6.20;;;;;;;17.42;100.00;101116.56;5034009;28;20112;-61
2022/06/03 01:04:25;;;;;;;6.35;6.07;;;;;;;17.43;100.00;101112.84;5049262;28;20024;-62
2022/06/03 01:06:57;;;;;;;6.60;6.30;;;;;;;17.38;100.00;101116.94;5033996;28;20056;-62
2022/06/03 01:09:55;;;;;;;6.20;6.00;;;;;;;17.33;100.00;101107.84;5027658;28;20025;-61
2022/06/03 01:12:42;;;;;;;6.55;6.25;;;;;;;17.31;100.00;101116.09;5029926;28;20128;-62
2022/06/03 01:15:18;;;;;;;6.40;6.10;;;;;;;17.31;100.00;101116.09;5038031;28;20025;-62
2022/06/03 01:18:06;;;;;;;6.07;5.88;;;;;;;17.32;100.00;101117.75;5033740;28;20048;-61
2022/06/03 01:20:47;;;;;;;6.63;6.32;;;;;;;17.30;100.00;101110.94;5033733;28;20064;-61
2022/06/03 01:23:31;;;;;;;6.35;6.05;;;;;;;17.29;100.00;101123.53;5033765;28;20025;-62
2022/06/03 01:26:08;;;;;;;6.63;6.32;;;;;;;17.24;100.00;101126.00;5031026;28;20033;-60
2022/06/03 01:28:51;;;;;;;6.50;6.20;;;;;;;17.23;100.00;101120.84;5026672;28;20033;-62
2022/06/03 01:32:10;;;;;;;6.40;6.10;;;;;;;17.18;100.00;101129.50;5034123;28;20500;-62
2022/06/03 01:35:11;;;;;;;6.55;6.25;;;;;;;17.24;100.00;101138.59;4991788;28;20035;-61
2022/06/03 01:37:49;;;;;;;6.50;6.20;;;;;;;17.28;100.00;101145.19;4987849;28;20022;-61
2022/06/03 01:40:36;;;;;;;6.50;6.20;;;;;;;17.26;100.00;101145.41;5021699;28;20048;-61
2022/06/03 01:43:08;;;;;;;6.40;6.10;;;;;;;17.17;100.00;101157.34;5020062;28;20095;-61
2022/06/03 01:45:55;;;;;;;6.38;6.07;;;;;;;17.10;100.00;101153.81;5030137;28;20040;-61
2022/06/03 01:49:17;;;;;;;6.50;6.20;;;;;;;17.03;100.00;101156.47;5026455;28;20040;-61
2022/06/03 01:52:18;;;;;;;6.50;6.20;;;;;;;17.02;100.00;101164.72;4991429;28;20504;-61
2022/06/03 01:55:08;;;;;;;6.30;6.03;;;;;;;16.98;100.00;101164.31;4991282;28;20469;-61
2022/06/03 01:57:50;;;;;;;6.30;6.03;;;;;;;16.96;100.00;101165.50;5019957;28;20041;-62
2022/06/03 02:00:24;;;;;;;6.25;5.97;;;;;;;16.96;100.00;101171.69;5029301;28;20120;-62
2022/06/03 02:03:08;;;;;;;6.50;6.20;;;;;;;16.89;100.00;101168.16;5032971;28;20029;-62
2022/06/03 02:05:45;;;;;;;6.17;5.97;;;;;;;16.88;100.00;101176.41;5033906;28;20029;-61
2022/06/03 02:08:41;;;;;;;6.10;5.90;;;;;;;16.88;100.00;101171.06;5032249;28;20476;-62
2022/06/03 02:11:19;;;;;;;6.03;5.82;;;;;;;16.85;100.00;101172.28;5032938;28;20029;-61
2022/06/03 02:13:50;;;;;;;6.20;5.95;;;;;;;16.83;100.00;101161.78;5032859;28;20454;-62
2022/06/03 02:16:34;;;;;;;6.00;5.80;;;;;;;16.77;100.00;101162.56;5024997;28;20060;-61
2022/06/03 02:19:05;;;;;;;6.00;5.80;;;;;;;16.79;100.00;101160.50;5030782;28;20025;-61
2022/06/03 02:21:44;;;;;;;6.18;5.97;;;;;;;16.77;100.00;101165.25;5035450;28;20030;-61
2022/06/03 02:24:24;;;;;;;6.60;6.30;;;;;;;16.77;100.00;101172.47;5031319;28;20029;-61
2022/06/03 02:27:27;;;;;;;6.80;6.50;;;;;;;16.76;100.00;101181.53;5032163;28;20022;-60
2022/06/03 02:33:07;;;;;;;6.32;6.03;;;;;;;16.82;100.00;101181.56;5021630;28;20040;-62
2022/06/03 02:35:52;;;;;;;6.40;6.10;;;;;;;16.93;100.00;101179.31;5031658;28;20059;-62
2022/06/03 02:38:36;;;;;;;6.70;6.40;;;;;;;16.94;100.00;101180.97;5024098;28;20036;-62
2022/06/03 02:41:21;;;;;;;6.40;6.10;;;;;;;17.36;100.00;101182.56;5032359;28;20036;-61
2022/06/03 02:44:09;;;;;;;6.45;6.15;;;;;;;17.65;100.00;101166.09;5030802;28;20038;-61
2022/06/03 02:46:53;;;;;;;6.70;6.40;;;;;;;18.00;100.00;101189.25;5022236;28;20041;-62
2022/06/03 02:49:40;;;;;;;6.30;6.03;;;;;;;18.20;100.00;101187.34;5017585;28;20481;-61
2022/06/03 02:52:29;;;;;;;6.47;6.18;;;;;;;18.41;100.00;101197.84;5022809;28;20033;-61
2022/06/03 02:55:13;;;;;;;6.70;6.40;;;;;;;18.75;100.00;101198.63;5047145;28;20123;-62
2022/06/03 02:58:00;;;;;;;6.03;5.82;;;;;;;19.07;100.00;101206.78;5032111;28;20029;-62
2022/06/03 03:00:40;;;;;;;6.47;6.18;;;;;;;19.72;100.00;101207.47;5025581;28;20025;-62
2022/06/03 03:03:39;;;;;;;7.00;6.70;;;;;;;20.66;100.00;101206.41;5026343;28;20021;-62
2022/06/03 03:06:23;;;;;;;6.40;6.10;;;;;;;21.31;100.00;101214.75;5026051;28;20056;-61
2022/06/03 03:09:06;;;;;;;6.60;6.30;;;;;;;21.44;100.00;101219.13;5031621;28;20033;-61
2022/06/03 03:12:05;;;;;;;6.60;6.30;;;;;;;22.07;100.00;101221.25;5046896;28;20036;-61
2022/06/03 03:14:49;;;;;;;6.85;6.55;;;;;;;22.98;95.43;101240.63;5031611;28;20074;-62
2022/06/03 03:17:36;;;;;;;6.57;6.28;;;;;;;23.36;92.57;101243.59;5031635;28;20113;-62
2022/06/03 03:20:43;;;;;;;6.70;6.40;;;;;;;22.79;92.00;101238.06;5031691;28;20036;-62
2022/06/03 03:23:11;;;;;;;6.80;6.50;;;;;;;23.76;87.05;101245.41;5026405;28;20025;-62
2022/06/03 03:25:56;;;;;;;6.60;6.30;;;;;;;24.28;84.54;101247.88;5022488;28;20040;-61
2022/06/03 03:28:31;;;;;;;6.43;6.13;;;;;;;23.42;86.79;101250.72;5030391;28;20033;-62
2022/06/03 03:31:22;;;;;;;6.70;6.40;;;;;;;22.97;90.24;101252.53;5032158;28;20037;-61
2022/06/03 03:34:25;;;;;;;6.63;6.32;;;;;;;22.56;93.42;101254.34;5012300;28;20049;-61
2022/06/03 03:37:31;;;;;;;6.75;6.45;;;;;;;24.88;77.72;101260.66;5019832;28;20041;-62
2022/06/03 03:40:11;;;;;;;6.80;6.50;;;;;;;25.51;74.05;101267.41;5027534;28;20054;-62
2022/06/03 03:43:07;;;;;;;6.80;6.50;;;;;;;25.86;71.63;101269.69;5031484;28;20108;-61
2022/06/03 03:46:25;;;;;;;6.68;6.38;;;;;;;25.36;74.21;101267.25;5031344;28;20053;-61
2022/06/03 03:49:23;;;;;;;6.50;6.20;;;;;;;23.17;82.66;101277.31;5031761;28;20051;-62
2022/06/03 03:52:10;;;;;;;6.60;6.30;;;;;;;22.44;87.32;101283.25;5033386;28;20044;-61
2022/06/03 03:54:56;;;;;;;6.60;6.30;;;;;;;22.01;91.58;101289.75;5034746;28;20030;-63
2022/06/03 03:57:44;;;;;;;6.60;6.30;;;;;;;25.06;75.84;101297.59;5034975;28;20127;-62
2022/06/03 04:00:23;;;;;;;6.80;6.50;;;;;;;25.98;70.13;101309.47;5033940;28;20106;-61
2022/06/03 04:03:03;;;;;;;6.90;6.60;;;;;;;25.74;70.37;101322.56;5034052;28;20056;-62
2022/06/03 04:05:38;;;;;;;7.00;6.70;;;;;;;25.32;72.56;101317.72;5030549;28;20030;-62
2022/06/03 04:08:09;;;;;;;6.63;6.32;;;;;;;27.13;64.79;101326.91;5027869;28;20474;-63
2022/06/03 04:11:02;;;;;;;6.90;6.60;;;;;;;26.92;65.93;101327.88;5034110;28;20052;-61
2022/06/03 04:13:47;;;;;;;6.90;6.60;;;;;;;25.49;71.72;101329.34;5032214;28;20033;-61
2022/06/03 04:16:18;;;;;;;6.88;6.57;;;;;;;28.01;62.69;101339.72;5034726;28;20032;-62
2022/06/03 04:19:08;;;;;;;6.85;6.55;;;;;;;27.43;62.78;101339.03;5034438;28;20029;-62
2022/06/03 04:21:40;;;;;;;6.40;6.10;;;;;;;27.08;64.53;101348.66;5039240;28;20057;-61
2022/06/03 04:24:14;;;;;;;6.70;6.40;;;;;;;26.34;65.83;101344.03;5034429;28;20029;-62
2022/06/03 04:27:04;;;;;;;6.70;6.40;;;;;;;25.56;70.59;101345.41;5030785;28;20033;-61
2022/06/03 04:29:48;;;;;;;6.70;6.40;;;;;;;24.21;76.66;101355.66;5034208;28;20397;-62
2022/06/03 04:32:32;;;;;;;6.60;6.30;;;;;;;22.99;81.41;101358.63;5034304;28;20033;-60
2022/06/03 04:35:37;;;;;;;6.93;6.63;;;;;;;22.85;82.84;101361.59;5035527;28;20032;-62
2022/06/03 04:38:53;;;;;;;6.78;6.47;;;;;;;23.49;80.41;101358.06;5025865;28;20041;-62
2022/06/03 04:41:34;;;;;;;6.80;6.50;;;;;;;23.75;78.19;101362.16;5063250;28;20029;-62
2022/06/03 04:44:05;;;;;;;7.00;6.70;;;;;;;25.44;71.03;101361.06;5040270;28;20029;-61
2022/06/03 04:46:43;;;;;;;7.00;6.70;;;;;;;26.16;67.26;101364.31;5033394;28;20053;-61
2022/06/03 04:49:29;;;;;;;6.90;6.60;;;;;;;24.55;73.48;101366.56;5041806;28;20037;-61
2022/06/03 04:52:16;;;;;;;6.80;6.50;;;;;;;27.28;64.45;101369.75;5032760;28;20033;-62
2022/06/03 04:54:50;;;;;;;7.00;6.70;;;;;;;29.51;55.96;101367.38;5031802;28;20064;-62
2022/06/03 04:57:49;;;;;;;7.05;6.75;;;;;;;29.45;55.08;101367.38;5024672;28;20486;-61
2022/06/03 05:00:52;;;;;;;7.25;6.95;;;;;;;30.12;52.98;101372.50;5029989;28;20030;-62
2022/06/03 05:03:18;;;;;;;7.30;7.00;;;;;;;30.85;50.79;101377.06;5035286;28;20028;-62
2022/06/03 05:05:46;;;;;;;7.40;7.10;;;;;;;32.10;46.15;101388.69;5038316;28;20037;-61
2022/06/03 05:08:30;;;;;;;7.20;6.90;;;;;;;32.21;45.55;101398.38;5043069;28;20037;-61
2022/06/03 05:11:17;;;;;;;7.20;6.90;;;;;;;30.93;47.00;101393.72;5032517;28;20029;-61
2022/06/03 05:14:01;;;;;;;6.95;6.65;;;;;;;32.61;43.59;101393.31;5031895;28;20029;-62
2022/06/03 05:16:48;;;;;;;7.00;6.70;;;;;;;32.04;43.32;101398.91;5031412;28;20048;-62
2022/06/03 05:19:13;;;;;;;7.40;7.10;;;;;;;33.12;42.26;101398.72;5031149;28;20101;-62
2022/06/03 05:22:17;;;;;;;7.30;7.00;;;;;;;31.83;41.93;101390.16;5039462;28;20477;-62
2022/06/03 05:25:07;;;;;;;7.20;6.90;;;;;;;33.18;40.94;101400.25;5017044;28;20050;-62
2022/06/03 05:27:54;;;;;;;7.30;7.00;;;;;;;32.88;41.08;101396.16;5027069;28;20029;-62
2022/06/03 05:30:47;;;;;;;7.10;6.80;;;;;;;31.96;41.96;101396.84;5037512;28;20041;-62
2022/06/03 05:33:31;;;;;;;7.30;7.00;;;;;;;29.28;48.05;101393.41;5042872;28;20024;-62
2022/06/03 05:36:34;;;;;;;7.40;7.10;;;;;;;33.26;40.78;101402.28;5032363;28;20040;-62
2022/06/03 05:39:18;;;;;;;7.10;6.80;;;;;;;33.77;39.05;101405.91;5035476;28;20370;-62
2022/06/03 05:45:07;;;;;;;7.25;6.95;;;;;;;33.23;39.23;101413.91;5032346;28;19919;-61
2022/06/03 05:47:44;;;;;;;7.20;6.90;;;;;;;34.60;37.38;101411.97;5031141;28;20049;-61
2022/06/03 05:50:18;;;;;;;7.20;6.90;;;;;;;31.57;42.42;101417.09;5031390;28;20033;-62
2022/06/03 05:53:08;;;;;;;6.85;6.55;;;;;;;30.68;44.78;101416.66;5030722;28;20037;-62
2022/06/03 05:55:40;;;;;;;6.80;6.50;;;;;;;29.59;47.70;101416.81;5028157;28;20034;-62
2022/06/03 05:58:05;;;;;;;6.78;6.47;;;;;;;28.88;50.17;101422.44;5024332;28;20110;-61
2022/06/03 06:01:08;;;;;;;6.65;6.35;;;;;;;28.96;48.70;101429.28;5036297;28;20111;-62
2022/06/03 06:03:50;;;;;;;6.80;6.50;;;;;;;27.70;52.39;101426.91;5033115;28;20036;-62
2022/06/03 06:06:34;;;;;;;6.80;6.50;;;;;;;27.50;54.25;101432.25;5033192;28;20025;-63
2022/06/03 06:09:31;;;;;;;6.57;6.28;;;;;;;26.06;57.38;101426.75;5033881;28;20049;-61
2022/06/03 06:12:22;;;;;;;6.93;6.63;;;;;;;27.03;56.49;101437.66;5031556;28;20862;-62
2022/06/03 06:15:10;;;;;;;6.80;6.50;;;;;;;25.88;59.22;101425.19;5030391;28;20033;-62
2022/06/03 06:18:10;;;;;;;7.15;6.85;;;;;;;25.67;60.35;101426.00;5026574;28;20033;-62
2022/06/03 06:21:04;;;;;;;7.20;6.90;;;;;;;24.84;64.32;101416.97;5026490;28;20037;-62
2022/06/03 06:23:46;;;;;;;7.10;6.80;;;;;;;27.59;55.73;101422.47;5032128;28;20030;-63
2022/06/03 06:26:12;;;;;;;7.15;6.85;;;;;;;26.92;55.27;101421.25;5029697;28;20053;-62
2022/06/03 06:28:52;;;;;;;7.07;6.78;;;;;;;25.84;58.57;101423.22;5026537;28;20101;-62
2022/06/03 06:32:04;;;;;;;6.97;6.68;;;;;;;26.12;58.60;101419.47;5032141;28;20438;-61
2022/06/03 06:34:38;;;;;;;7.20;6.90;;;;;;;27.38;54.98;101420.75;5010945;28;20109;-63
2022/06/03 06:37:18;;;;;;;;;;;;;;;26.46;57.71;101422.81;5034641;28;20477;-61
2022/06/03 06:39:44;;;;;;;6.75;6.45;;;;;;;25.87;57.88;101415.41;5035918;28;19913;-64
2022/06/03 06:42:22;;;;;;;6.80;6.50;;;;;;;25.57;59.28;101423.16;5031725;28;20503;-63
2022/06/03 06:45:19;;;;;;;6.90;6.60;;;;;;;25.57;60.00;101418.56;5032142;28;20477;-62
2022/06/03 06:48:02;;;;;;;7.00;6.70;;;;;;;26.23;58.52;101425.84;5031728;28;20099;-62
2022/06/03 06:50:55;;;;;;;7.10;6.80;;;;;;;26.02;57.20;101424.81;5026231;28;20061;-62
2022/06/03 06:53:20;;;;;;;6.60;6.30;;;;;;;25.35;59.41;101423.16;5022822;28;20087;-62
2022/06/03 06:56:02;;;;;;;6.90;6.60;;;;;;;26.31;55.83;101425.38;5031733;28;20381;-62
2022/06/03 06:58:56;;;;;;;6.90;6.60;;;;;;;25.96;57.59;101423.91;5031425;28;20072;-62
2022/06/03 07:01:38;;;;;;;7.15;6.85;;;;;;;29.39;48.47;101425.91;5031520;28;20462;-63
2022/06/03 07:04:13;;;;;;;7.10;6.80;;;;;;;30.83;44.23;101409.41;5018285;28;20045;-62
2022/06/03 07:06:44;;;;;;;6.97;6.68;;;;;;;28.52;47.17;101419.72;5026041;28;20043;-62
2022/06/03 07:09:28;;;;;;;7.15;6.85;;;;;;;32.11;40.59;101429.56;5031921;28;20101;-62
2022/06/03 07:12:13;;;;;;;;;;;;;;;30.36;42.61;101419.94;5032389;28;20067;-62
2022/06/03 07:15:06;;;;;;;7.25;6.95;;;;;;;31.49;40.86;101420.47;5019773;28;20283;-62
2022/06/03 07:20:42;;;;;;;7.22;6.93;;;;;;;32.06;39.75;101428.81;5051481;28;20114;-63
2022/06/03 07:23:30;;;;;;;7.10;6.80;;;;;;;29.95;44.28;101420.16;5020166;28;20485;-62
2022/06/03 07:26:04;;;;;;;6.82;6.53;;;;;;;29.72;44.74;101431.78;5028396;28;20033;-63
2022/06/03 07:28:47;;;;;;;7.30;7.00;;;;;;;32.14;39.18;101433.63;5031647;28;20028;-61
2022/06/03 07:31:35;;;;;;;6.95;6.65;;;;;;;30.68;42.41;101440.50;5032605;28;20515;-62
2022/06/03 07:34:44;;;;;;;6.97;6.68;;;;;;;29.97;44.19;101439.88;5037216;28;20029;-62
2022/06/03 07:37:22;;;;;;;7.10;6.80;;;;;;;31.80;39.93;101448.38;5015443;28;20112;-62
2022/06/03 07:40:00;;;;;;;6.93;6.63;;;;;;;29.37;44.95;101447.19;5012089;28;20458;-62
2022/06/03 07:42:38;;;;;;;7.00;6.70;;;;;;;29.52;43.95;101446.38;5004425;28;20080;-62
2022/06/03 07:45:18;;;;;;;6.70;6.40;;;;;;;30.22;42.38;101438.91;5027424;28;20052;-63
2022/06/03 07:47:44;;;;;;;7.03;6.72;;;;;;;32.04;38.88;101447.50;5028844;28;20045;-61
2022/06/03 07:50:15;;;;;;;7.03;6.72;;;;;;;31.76;39.58;101449.22;5021005;28;20025;-62
2022/06/03 07:52:58;;;;;;;7.70;7.40;;;;;;;31.29;39.54;101450.91;5023115;28;20032;-60
2022/06/03 07:55:26;;;;;;;7.10;6.80;;;;;;;31.58;39.65;101446.16;5027415;28;20116;-61
2022/06/03 07:58:01;;;;;;;7.20;6.90;;;;;;;30.87;41.08;101446.91;5026384;28;20029;-60
2022/06/03 08:00:27;;;;;;;7.35;7.05;;;;;;;31.79;39.23;101443.97;5022085;28;20033;-60
2022/06/03 08:03:04;;;;;;;7.00;6.70;;;;;;;31.70;39.29;101448.47;5012152;28;20048;-64
2022/06/03 08:05:30;;;;;;;6.95;6.65;;;;;;;31.72;38.36;101437.19;5020277;28;20466;-63
2022/06/03 08:10:57;;;;;;;7.15;6.85;;;;;;;30.83;39.39;101445.84;5023803;28;20090;-63
2022/06/03 08:13:25;;;;;;;7.20;6.90;;;;;;;29.92;41.62;101442.63;5034421;28;20373;-64
2022/06/03 08:16:05;;;;;;;7.13;6.82;;;;;;;29.65;41.52;101442.22;5029325;28;20033;-64
2022/06/03 08:18:35;;;;;;;7.20;6.90;;;;;;;29.72;40.88;101442.72;5029939;28;20430;-63
2022/06/03 08:21:06;;;;;;;7.35;7.05;;;;;;;29.62;41.11;101451.00;5022319;28;20033;-64
2022/06/03 08:23:33;;;;;;;7.00;6.70;;;;;;;29.59;41.72;101457.00;5021653;28;20021;-64
2022/06/03 08:26:03;;;;;;;7.20;6.90;;;;;;;29.38;41.05;101454.34;5027160;28;20033;-64
2022/06/03 08:28:34;;;;;;;7.05;6.75;;;;;;;30.01;40.85;101464.75;5031007;28;20071;-62
2022/06/03 08:31:03;;;;;;;7.07;6.78;;;;;;;30.24;39.67;101452.31;5027486;28;20428;-63
2022/06/03 08:33:43;;;;;;;7.07;6.78;;;;;;;30.34;39.57;101456.94;5026751;28;20122;-64
2022/06/03 08:36:15;;;;;;;7.18;6.88;;;;;;;29.88;40.54;101457.97;5025654;28;20036;-63
2022/06/03 08:38:54;;;;;;;6.90;6.60;;;;;;;30.24;38.34;101447.66;5025998;28;20397;-62
2022/06/03 08:41:38;;;;;;;7.47;7.18;;;;;;;30.88;37.11;101448.53;5029536;28;20048;-64
2022/06/03 08:44:22;;;;;;;6.63;6.32;;;;;;;30.04;39.00;101446.94;5030675;28;20029;-61
2022/06/03 08:47:12;;;;;;;6.72;6.43;;;;;;;30.99;37.98;101458.28;5033724;28;20136;-60
2022/06/03 08:49:55;;;;;;;6.78;6.47;;;;;;;30.51;37.90;101449.13;5033187;28;20121;-60
2022/06/03 08:52:26;;;;;;;6.93;6.63;;;;;;;29.60;39.42;101458.63;5034875;28;20099;-62
2022/06/03 08:54:55;;;;;;;6.93;6.63;;;;;;;29.85;38.42;101452.25;5032597;28;20041;-61
2022/06/03 08:57:36;;;;;;;7.30;7.00;;;;;;;28.62;40.85;101443.47;5031659;28;20017;-61
2022/06/03 09:00:02;;;;;;;6.78;6.47;;;;;;;29.27;39.99;101449.97;5025817;28;20038;-59
2022/06/03 09:02:32;;;;;;;6.60;6.30;;;;;;;29.11;40.05;101454.66;5026384;28;20044;-60
2022/06/03 09:05:09;;;;;;;6.88;6.57;;;;;;;29.86;38.82;101462.09;5015619;28;20112;-62
2022/06/03 09:07:41;;;;;;;7.00;6.70;;;;;;;30.16;38.37;101455.66;5033600;28;20108;-61
2022/06/03 09:10:28;;;;;;;6.90;6.60;;;;;;;28.67;41.24;101457.13;5033033;28;20477;-62
2022/06/03 09:13:11;;;;;;;7.00;6.70;;;;;;;29.40;39.69;101468.53;5035450;28;20472;-59
2022/06/03 09:15:40;;;;;;;7.10;6.80;;;;;;;29.17;39.26;101458.22;5031202;28;20035;-61
2022/06/03 09:18:50;;;;;;;6.95;6.65;;;;;;;29.80;38.17;101476.88;5033976;28;20036;-61
2022/06/03 09:21:26;;;;;;;6.70;6.40;;;;;;;29.34;39.01;101474.28;5010536;28;20029;-61
2022/06/03 09:23:57;;;;;;;6.80;6.50;;;;;;;28.37;41.06;101468.03;5030849;28;20045;-62
2022/06/03 09:26:32;;;;;;;6.60;6.30;;;;;;;28.69;40.46;101465.03;5033858;28;20492;-60
2022/06/03 09:28:59;;;;;;;6.50;6.20;;;;;;;28.73;40.19;101466.97;5033906;28;20037;-61
2022/06/03 09:31:26;;;;;;;7.03;6.72;;;;;;;28.35;40.29;101463.66;5033308;28;20113;-61
2022/06/03 09:33:55;;;;;;;6.90;6.60;;;;;;;27.63;40.98;101463.66;5027346;28;20494;-62
2022/06/03 09:36:23;;;;;;;6.53;6.22;;;;;;;28.17;40.82;101474.22;5035035;28;20461;-60
2022/06/03 09:38:54;;;;;;;7.15;6.85;;;;;;;28.79;40.47;101474.06;5026288;28;20021;-60
2022/06/03 09:41:27;;;;;;;6.70;6.40;;;;;;;27.94;41.16;101468.16;5025090;28;20061;-61
2022/06/03 09:43:54;;;;;;;6.60;6.30;;;;;;;27.96;41.16;101459.72;5033093;28;20111;-61
2022/06/03 09:46:23;;;;;;;6.80;6.50;;;;;;;27.48;42.04;101459.78;5031989;28;20057;-62
2022/06/03 09:48:50;;;;;;;6.75;6.45;;;;;;;27.39;41.58;101463.25;5033387;28;20388;-62
2022/06/03 09:51:55;;;;;;;6.70;6.40;;;;;;;28.37;40.69;101462.56;5035676;28;20033;-61
2022/06/03 09:54:18;;;;;;;6.78;6.47;;;;;;;27.18;41.62;101460.44;5036831;28;20137;-63
2022/06/03 09:56:50;;;;;;;6.72;6.43;;;;;;;27.69;40.66;101462.59;5035988;28;20033;-61
2022/06/03 09:59:19;;;;;;;6.90;6.60;;;;;;;27.52;40.96;101460.06;5030633;28;20025;-63
2022/06/03 10:01:46;;;;;;;6.70;6.40;;;;;;;27.57;41.14;101462.00;5040231;28;20028;-62
2022/06/03 10:04:12;;;;;;;6.80;6.50;;;;;;;27.37;41.81;101470.88;5042151;28;20190;-61
2022/06/03 10:06:43;;;;;;;6.88;6.57;;;;;;;26.94;43.72;101465.38;5020420;28;20112;-64
2022/06/03 10:15:38;;;;;;;6.78;6.47;;;;;;;26.67;44.37;101454.56;5025408;28;20785;-65
2022/06/03 10:17:33;;;;;;;7.00;6.70;;;;;;;26.94;43.85;101451.75;5026443;28;20033;-65
2022/06/03 10:19:59;;;;;;;7.05;6.75;;;;;;;26.85;43.60;101452.53;5026738;28;20040;-64
2022/06/03 10:22:25;;;;;;;7.05;6.75;;;;;;;27.04;43.00;101448.34;5027397;28;20098;-65
2022/06/03 10:24:50;;;;;;;6.78;6.47;;;;;;;26.58;43.67;101444.41;5026882;28;20018;-65
2022/06/03 10:27:18;;;;;;;7.03;6.72;;;;;;;26.42;44.17;101438.00;5023503;28;20052;-65
2022/06/03 10:29:50;;;;;;;6.95;6.65;;;;;;;26.71;43.98;101436.63;5030264;28;20029;-63
2022/06/03 10:32:19;;;;;;;6.95;6.65;;;;;;;26.68;43.17;101436.34;5031464;28;20028;-64
2022/06/03 10:34:45;;;;;;;6.97;6.68;;;;;;;26.93;42.84;101441.97;5026981;28;20032;-64
2022/06/03 10:37:14;;;;;;;6.82;6.53;;;;;;;26.43;42.42;101432.28;5027238;28;20030;-65
2022/06/03 10:39:43;;;;;;;6.88;6.57;;;;;;;26.84;42.09;101434.56;5036122;28;20353;-64
2022/06/03 10:42:18;;;;;;;7.25;6.95;;;;;;;26.76;40.95;101427.69;5028136;28;20040;-63
2022/06/03 10:44:47;;;;;;;6.88;6.57;;;;;;;26.79;40.53;101423.63;5016746;28;20472;-62
2022/06/03 10:47:21;;;;;;;7.25;6.95;;;;;;;27.26;40.35;101427.22;5027701;28;20076;-62
2022/06/03 10:49:54;;;;;;;;;;;;;;;27.11;39.27;101431.78;5026465;28;21907;-64
2022/06/03 11:01:28;;;;;;;;;;;;;;;26.39;40.99;101412.16;5033466;28;20115;-61
2022/06/03 11:03:55;;;;;;;6.53;6.22;;;;;;;27.15;41.02;101411.91;5027581;28;20379;-61
2022/06/03 11:06:28;;;;;;;6.63;6.32;;;;;;;26.86;40.74;101416.03;5024438;28;20021;-61
2022/06/03 11:08:59;;;;;;;6.57;6.28;;;;;;;26.82;40.91;101404.88;5030494;28;20024;-60
2022/06/03 11:11:48;;;;;;;6.70;6.40;;;;;;;26.41;41.38;101403.72;5023226;28;20113;-60
2022/06/03 11:14:39;;;;;;;6.90;6.60;;;;;;;26.80;40.56;101395.31;5015661;28;20032;-60
2022/06/03 11:17:17;;;;;;;6.80;6.50;;;;;;;27.08;41.83;101408.59;5022677;28;20473;-62
2022/06/03 11:19:48;;;;;;;6.70;6.40;;;;;;;26.89;41.99;101396.47;5031341;28;20108;-61
2022/06/03 11:22:30;;;;;;;6.72;6.43;;;;;;;26.58;42.06;101396.22;5023737;28;20029;-61
2022/06/03 11:25:03;;;;;;;6.70;6.40;;;;;;;24.57;46.13;101396.97;5031641;28;20078;-60
2022/06/03 11:27:55;;;;;;;6.70;6.40;;;;;;;26.33;43.55;101387.84;5031438;28;20033;-61
2022/06/03 11:30:47;;;;;;;6.47;6.18;;;;;;;25.74;43.69;101377.75;5029601;28;20068;-63
2022/06/03 11:33:28;;;;;;;6.90;6.60;;;;;;;26.65;42.44;101380.50;5018695;28;20032;-61
2022/06/03 11:35:59;;;;;;;7.00;6.70;;;;;;;25.76;43.78;101380.19;5030777;28;20506;-62
2022/06/03 11:38:44;;;;;;;6.88;6.57;;;;;;;26.40;42.07;101383.84;5026026;28;20041;-62
2022/06/03 11:41:16;;;;;;;6.78;6.47;;;;;;;26.34;42.87;101375.88;5031455;28;20029;-61
2022/06/03 11:43:54;;;;;;;6.45;6.15;;;;;;;26.50;42.66;101377.66;5030224;28;20440;-61
2022/06/03 11:46:31;;;;;;;6.80;6.50;;;;;;;26.38;42.51;101380.56;5030742;28;20049;-61
2022/06/03 11:48:57;;;;;;;6.75;6.45;;;;;;;26.74;42.79;101374.59;5031295;28;20057;-61
2022/06/03 11:51:25;;;;;;;7.00;6.70;;;;;;;25.94;42.75;101369.00;5030280;28;20036;-61
2022/06/03 11:53:52;;;;;;;6.70;6.40;;;;;;;25.92;41.76;101368.41;5031493;28;20022;-62
2022/06/03 11:56:27;;;;;;;6.72;6.43;;;;;;;25.06;43.51;101366.28;5028897;28;20029;-61
2022/06/03 11:59:10;;;;;;;6.90;6.60;;;;;;;24.64;44.24;101355.03;5026262;28;20108;-61
2022/06/03 12:01:50;;;;;;;6.90;6.60;;;;;;;25.97;42.55;101357.59;5042516;28;20523;-60
2022/06/03 12:04:39;;;;;;;6.75;6.45;;;;;;;26.58;41.88;101357.31;5025220;28;20026;-61
2022/06/03 12:07:21;;;;;;;6.50;6.20;;;;;;;27.05;41.38;101359.28;5031158;28;20033;-61
2022/06/03 12:10:16;;;;;;;6.70;6.40;;;;;;;26.93;40.92;101359.47;5029636;28;20065;-61
2022/06/03 12:15:34;;;;;;;6.68;6.38;;;;;;;26.82;41.25;101349.59;5031507;28;20036;-61
2022/06/03 12:18:14;;;;;;;7.30;7.00;;;;;;;26.78;41.34;101352.00;5030581;28;20393;-60
2022/06/03 12:20:53;;;;;;;6.80;6.50;;;;;;;26.31;40.76;101343.75;5026783;28;20033;-60
2022/06/03 12:23:18;;;;;;;6.50;6.20;;;;;;;27.06;40.09;101344.59;5026354;28;20029;-60
2022/06/03 12:26:06;;;;;;;6.82;6.53;;;;;;;26.86;38.32;101331.63;5034898;28;20393;-61
2022/06/03 12:28:38;;;;;;;6.63;6.32;;;;;;;26.83;38.21;101324.81;5030367;28;20309;-61
2022/06/03 12:31:17;;;;;;;6.65;6.35;;;;;;;26.61;37.05;101333.13;5030527;28;20025;-62
2022/06/03 12:33:50;;;;;;;6.60;6.30;;;;;;;26.41;36.14;101328.34;5038958;28;20029;-61
2022/06/03 12:36:47;;;;;;;6.75;6.45;;;;;;;26.67;36.54;101336.72;5034857;28;20021;-61
2022/06/03 12:39:22;;;;;;;6.57;6.28;;;;;;;27.21;35.61;101333.75;5022662;28;20037;-62
2022/06/03 12:41:48;;;;;;;6.60;6.30;;;;;;;27.05;36.20;101324.69;5032236;28;20049;-62
2022/06/03 12:44:46;;;;;;;6.80;6.50;;;;;;;27.49;36.02;101335.22;5034186;28;20069;-62
2022/06/03 12:47:18;;;;;;;6.65;6.35;;;;;;;27.49;36.01;101332.50;5032148;28;20100;-61
2022/06/03 12:49:43;;;;;;;6.75;6.45;;;;;;;27.32;36.73;101318.25;5033801;28;20488;-61
2022/06/03 12:52:21;;;;;;;6.53;6.22;;;;;;;27.64;37.16;101318.09;5054028;28;20106;-61
2022/06/03 12:54:55;;;;;;;6.57;6.28;;;;;;;27.58;37.63;101325.44;5032870;28;20037;-62
2022/06/03 12:57:38;;;;;;;6.60;6.30;;;;;;;26.44;38.81;101314.25;5033284;28;20025;-62